createdAt,value
2019-02-16T00:00:47.614Z,16.10
2019-02-16T00:03:14.531Z,21.70
2019-02-16T00:05:41.455Z,17.47
2019-02-16T00:08:08.370Z,19.03
2019-02-16T00:10:35.321Z,20.87
2019-02-16T00:13:02.618Z,17.20
2019-02-16T00:15:29.634Z,17.33
2019-02-16T00:17:56.500Z,17.70
2019-02-16T00:20:23.301Z,17.63
2019-02-16T00:22:50.098Z,18.93
2019-02-16T00:25:16.938Z,17.37
2019-02-16T00:27:43.733Z,17.57
2019-02-16T00:30:10.737Z,17.27
2019-02-16T00:32:37.886Z,18.83
2019-02-16T00:35:04.918Z,17.07
2019-02-16T00:37:31.730Z,16.60
2019-02-16T00:39:58.628Z,14.00
2019-02-16T00:42:25.526Z,16.47
2019-02-16T00:44:52.319Z,16.40
2019-02-16T00:47:19.266Z,15.10
2019-02-16T00:49:46.070Z,15.90
2019-02-16T00:52:12.875Z,15.23
2019-02-16T00:54:39.700Z,18.90
2019-02-16T00:57:06.517Z,17.10
2019-02-16T00:59:33.318Z,15.17
2019-02-16T01:02:00.160Z,17.37
2019-02-16T01:04:27.068Z,14.73
2019-02-16T01:06:55.773Z,15.77
2019-02-16T01:09:22.654Z,16.37
2019-02-16T01:11:49.623Z,19.37
2019-02-16T01:14:16.531Z,17.27
2019-02-16T01:16:43.402Z,14.20
2019-02-16T01:19:10.215Z,16.40
2019-02-16T01:21:37.025Z,17.67
2019-02-16T01:24:04.051Z,18.20
2019-02-16T01:26:30.849Z,16.20
2019-02-16T01:28:57.647Z,16.30
2019-02-16T01:31:24.470Z,16.83
2019-02-16T01:33:51.369Z,16.60
2019-02-16T01:36:18.381Z,17.27
2019-02-16T01:38:45.239Z,16.33
2019-02-16T01:41:12.067Z,15.83
2019-02-16T01:43:38.899Z,15.63
2019-02-16T01:46:05.867Z,17.27
2019-02-16T01:48:32.900Z,17.63
2019-02-16T01:50:59.800Z,18.83
2019-02-16T01:53:26.645Z,20.70
2019-02-16T01:55:53.452Z,20.47
2019-02-16T01:58:20.962Z,19.30
2019-02-16T02:00:48.034Z,19.20
2019-02-16T02:03:15.030Z,21.87
2019-02-16T02:05:41.854Z,24.13
2019-02-16T02:08:08.890Z,17.83
2019-02-16T02:10:35.702Z,20.77
2019-02-16T02:13:02.502Z,19.20
2019-02-16T02:15:29.650Z,17.83
2019-02-16T02:17:56.448Z,16.83
2019-02-16T02:20:23.350Z,16.90
2019-02-16T02:22:50.368Z,16.83
2019-02-16T02:25:17.153Z,18.60
2019-02-16T02:27:43.984Z,14.97
2019-02-16T02:30:11.103Z,17.33
2019-02-16T02:32:38.082Z,17.03
2019-02-16T02:35:05.302Z,18.33
2019-02-16T02:37:32.149Z,17.83
2019-02-16T02:39:59.055Z,16.07
2019-02-16T02:42:25.889Z,19.57
2019-02-16T02:44:52.730Z,17.60
2019-02-16T02:47:19.541Z,19.20
2019-02-16T02:49:46.350Z,15.33
2019-02-16T02:52:13.302Z,16.63
2019-02-16T02:54:40.142Z,15.70
2019-02-16T02:57:07.076Z,15.83
2019-02-16T02:59:34.430Z,16.77
2019-02-16T03:02:01.282Z,17.17
2019-02-16T03:04:28.081Z,18.23
2019-02-16T03:06:54.911Z,16.47
2019-02-16T03:09:21.696Z,18.87
2019-02-16T03:11:48.503Z,17.93
2019-02-16T03:14:15.353Z,18.60
2019-02-16T03:16:42.159Z,17.63
2019-02-16T03:19:09.118Z,18.63
2019-02-16T03:21:38.309Z,16.57
2019-02-16T03:24:05.106Z,17.63
2019-02-16T03:26:54.460Z,17.03
2019-02-16T03:29:37.528Z,17.37
2019-02-16T03:32:28.811Z,18.70
2019-02-16T03:35:43.582Z,18.30
2019-02-16T03:38:33.964Z,18.27
2019-02-16T03:41:00.760Z,17.30
2019-02-16T03:43:27.586Z,19.27
2019-02-16T03:45:54.560Z,17.30
2019-02-16T03:48:21.410Z,17.70
2019-02-16T03:50:48.339Z,15.43
2019-02-16T03:53:15.186Z,15.67
2019-02-16T03:55:42.184Z,19.00
2019-02-16T03:58:09.011Z,15.60
2019-02-16T04:00:35.949Z,17.10
2019-02-16T04:03:03.020Z,16.20
2019-02-16T04:05:29.929Z,16.77
2019-02-16T04:07:56.784Z,16.17
2019-02-16T04:10:23.614Z,18.33
2019-02-16T04:12:50.421Z,17.03
2019-02-16T04:15:17.241Z,19.70
2019-02-16T04:17:44.050Z,19.27
2019-02-16T04:20:10.995Z,16.87
2019-02-16T04:22:37.994Z,15.03
2019-02-16T04:25:05.001Z,18.20
2019-02-16T04:27:31.797Z,16.40
2019-02-16T04:29:58.638Z,18.53
2019-02-16T04:32:25.552Z,16.60
2019-02-16T04:34:52.351Z,20.30
2019-02-16T04:37:19.291Z,16.23
2019-02-16T04:39:46.197Z,18.77
2019-02-16T04:42:13.115Z,17.67
2019-02-16T04:44:40.002Z,17.90
2019-02-16T04:47:07.015Z,14.80
2019-02-16T04:49:34.122Z,17.10
2019-02-16T04:52:01.108Z,20.97
2019-02-16T04:54:27.991Z,16.13
2019-02-16T04:56:54.806Z,14.43
2019-02-16T04:59:21.651Z,18.77
2019-02-16T05:01:48.545Z,16.47
2019-02-16T05:04:15.363Z,15.20
2019-02-16T05:06:42.245Z,14.63
2019-02-16T05:09:09.254Z,15.53
2019-02-16T05:11:36.074Z,17.97
2019-02-16T05:14:03.031Z,17.30
2019-02-16T05:16:30.084Z,15.87
2019-02-16T05:18:56.892Z,16.87
2019-02-16T05:21:23.929Z,12.23
2019-02-16T05:23:50.829Z,13.87
2019-02-16T05:26:17.725Z,14.93
2019-02-16T05:28:44.581Z,15.50
2019-02-16T05:31:11.492Z,13.87
2019-02-16T05:33:38.290Z,14.03
2019-02-16T05:36:05.250Z,14.90
2019-02-16T05:38:32.058Z,14.53
2019-02-16T05:40:58.881Z,13.57
2019-02-16T05:43:25.759Z,15.03
2019-02-16T05:45:52.566Z,14.80
2019-02-16T05:48:19.366Z,13.47
2019-02-16T05:50:46.202Z,13.83
2019-02-16T05:53:13.006Z,14.20
2019-02-16T05:55:39.826Z,15.43
2019-02-16T05:58:06.774Z,12.43
2019-02-16T06:00:33.602Z,12.37
2019-02-16T06:03:00.410Z,16.30
2019-02-16T06:05:27.302Z,13.87
2019-02-16T06:07:54.099Z,12.87
2019-02-16T06:10:20.883Z,16.37
2019-02-16T06:12:48.114Z,16.20
2019-02-16T06:15:14.987Z,13.97
2019-02-16T06:17:41.798Z,13.80
2019-02-16T06:20:08.649Z,13.47
2019-02-16T06:22:35.481Z,14.10
2019-02-16T06:25:02.556Z,13.73
2019-02-16T06:27:29.820Z,13.53
2019-02-16T06:29:56.752Z,14.70
2019-02-16T06:32:23.677Z,16.57
2019-02-16T06:34:55.630Z,14.67
2019-02-16T06:37:23.723Z,16.33
2019-02-16T06:39:50.927Z,14.90
2019-02-16T06:42:17.909Z,16.90
2019-02-16T06:44:44.717Z,16.20
2019-02-16T06:47:14.127Z,15.03
2019-02-16T06:49:41.079Z,12.77
2019-02-16T06:52:08.070Z,12.73
2019-02-16T06:54:34.866Z,14.83
2019-02-16T06:57:05.373Z,14.60
2019-02-16T06:59:32.178Z,16.47
2019-02-16T07:01:58.975Z,13.13
2019-02-16T07:04:25.814Z,17.87
2019-02-16T07:06:52.635Z,14.97
2019-02-16T07:09:19.546Z,16.07
2019-02-16T07:11:46.553Z,16.07
2019-02-16T07:14:13.357Z,16.60
2019-02-16T07:16:58.966Z,13.73
2019-02-16T07:19:37.819Z,14.93
2019-02-16T07:22:04.911Z,14.97
2019-02-16T07:24:31.711Z,12.47
2019-02-16T07:26:58.567Z,17.77
2019-02-16T07:29:25.499Z,14.57
2019-02-16T07:31:52.309Z,14.50
2019-02-16T07:34:38.773Z,14.53
2019-02-16T07:37:05.577Z,13.07
2019-02-16T07:39:32.386Z,15.73
2019-02-16T07:41:59.261Z,12.37
2019-02-16T07:44:32.358Z,13.13
2019-02-16T07:47:10.401Z,13.77
2019-02-16T07:49:49.402Z,13.97
2019-02-16T07:52:24.778Z,12.07
2019-02-16T07:54:56.621Z,10.73
2019-02-16T07:57:35.059Z,11.17
2019-02-16T08:00:10.471Z,12.07
2019-02-16T08:02:58.990Z,12.17
2019-02-16T08:05:33.633Z,10.77
2019-02-16T08:08:23.182Z,11.50
2019-02-16T08:11:27.739Z,11.37
2019-02-16T08:14:02.176Z,10.63
2019-02-16T08:16:36.655Z,10.90
2019-02-16T08:19:11.424Z,9.23
2019-02-16T08:21:56.865Z,11.43
2019-02-16T08:24:52.550Z,10.00
2019-02-16T08:27:24.022Z,10.23
2019-02-16T08:30:09.155Z,11.67
2019-02-16T08:33:07.770Z,13.50
2019-02-16T08:35:52.778Z,11.10
2019-02-16T08:38:42.097Z,12.33
2019-02-16T08:41:25.865Z,12.67
2019-02-16T08:44:01.782Z,11.23
2019-02-16T08:46:41.681Z,9.13
2019-02-16T08:49:33.985Z,10.23
2019-02-16T08:52:18.251Z,9.20
2019-02-16T08:54:52.323Z,13.10
2019-02-16T08:57:41.097Z,10.40
2019-02-16T09:00:30.345Z,10.40
2019-02-16T09:03:05.303Z,11.13
2019-02-16T09:05:56.367Z,10.60
2019-02-16T09:08:33.102Z,12.70
2019-02-16T09:11:22.297Z,13.53
2019-02-16T09:13:57.271Z,9.50
2019-02-16T09:16:37.855Z,10.57
2019-02-16T09:19:21.666Z,10.23
2019-02-16T09:21:57.076Z,8.77
2019-02-16T09:24:32.766Z,10.03
2019-02-16T09:27:12.266Z,11.10
2019-02-16T09:29:56.229Z,11.77
2019-02-16T09:32:43.954Z,10.80
2019-02-16T09:35:29.087Z,12.93
2019-02-16T09:38:15.742Z,9.30
2019-02-16T09:41:02.627Z,9.90
2019-02-16T09:44:00.879Z,8.07
2019-02-16T09:46:50.044Z,10.43
2019-02-16T09:49:30.906Z,10.23
2019-02-16T09:52:09.342Z,9.90
2019-02-16T09:54:51.513Z,8.80
2019-02-16T09:57:27.290Z,10.53
2019-02-16T10:00:03.527Z,10.67
2019-02-16T10:02:39.615Z,10.20
2019-02-16T10:05:26.275Z,10.73
2019-02-16T10:08:13.623Z,10.67
2019-02-16T10:10:58.855Z,8.83
2019-02-16T10:13:38.737Z,10.00
2019-02-16T10:16:27.874Z,8.50
2019-02-16T10:19:05.796Z,8.47
2019-02-16T10:21:50.957Z,10.57
2019-02-16T10:24:40.255Z,8.47
2019-02-16T10:27:29.569Z,9.43
2019-02-16T10:30:02.590Z,8.13
2019-02-16T10:32:47.515Z,11.30
2019-02-16T10:35:24.118Z,9.37
2019-02-16T10:37:57.572Z,8.60
2019-02-16T10:40:44.122Z,7.90
2019-02-16T10:43:36.717Z,11.33
2019-02-16T10:46:22.268Z,8.90
2019-02-16T10:49:08.733Z,10.70
2019-02-16T10:51:55.332Z,10.80
2019-02-16T10:54:32.047Z,9.07
2019-02-16T10:57:09.881Z,9.10
2019-02-16T11:00:05.230Z,10.40
2019-02-16T11:02:46.157Z,10.23
2019-02-16T11:05:19.123Z,12.20
2019-02-16T11:07:52.033Z,9.50
2019-02-16T11:10:38.703Z,10.57
2019-02-16T11:13:21.273Z,10.80
2019-02-16T11:15:54.920Z,9.37
2019-02-16T11:18:59.474Z,10.57
2019-02-16T11:21:38.958Z,11.10
2019-02-16T11:24:13.326Z,10.80
2019-02-16T11:26:48.337Z,10.93
2019-02-16T11:29:53.038Z,13.33
2019-02-16T11:32:39.494Z,12.80
2019-02-16T11:35:26.514Z,11.57
2019-02-16T11:38:04.330Z,12.53
2019-02-16T11:40:53.706Z,10.13
2019-02-16T11:43:34.345Z,12.50
2019-02-16T11:46:10.966Z,11.50
2019-02-16T11:48:45.661Z,12.93
2019-02-16T11:51:34.750Z,10.43
2019-02-16T11:54:45.226Z,10.13
2019-02-16T11:57:17.050Z,14.43
2019-02-16T11:59:59.864Z,11.43
2019-02-16T12:02:41.769Z,15.20
2019-02-16T12:05:18.095Z,14.90
2019-02-16T12:08:01.698Z,12.73
2019-02-16T12:10:56.823Z,13.43
2019-02-16T12:13:51.654Z,11.30
2019-02-16T12:16:38.192Z,14.13
2019-02-16T12:19:36.493Z,12.20
2019-02-16T12:22:12.438Z,12.00
2019-02-16T12:25:08.314Z,10.40
2019-02-16T12:28:17.414Z,11.17
2019-02-16T12:31:03.924Z,11.60
2019-02-16T12:33:38.882Z,12.97
2019-02-16T12:36:22.071Z,13.23
2019-02-16T12:39:05.097Z,13.97
2019-02-16T12:41:41.938Z,12.23
2019-02-16T12:44:31.219Z,13.57
2019-02-16T12:47:16.787Z,14.40
2019-02-16T12:49:51.050Z,14.37
2019-02-16T12:52:36.540Z,14.60
2019-02-16T12:55:21.481Z,14.13
2019-02-16T12:58:02.921Z,17.40
2019-02-16T13:01:04.367Z,15.17
2019-02-16T13:03:59.782Z,12.80
2019-02-16T13:06:46.228Z,12.93
2019-02-16T13:09:22.211Z,14.57
2019-02-16T13:11:58.132Z,13.67
2019-02-16T13:14:39.849Z,17.97
2019-02-16T13:17:32.446Z,15.47
2019-02-16T13:20:20.523Z,15.70
2019-02-16T13:23:01.558Z,18.90
2019-02-16T13:25:46.183Z,15.83
2019-02-16T13:28:26.465Z,14.63
2019-02-16T13:31:18.780Z,16.87
2019-02-16T13:34:03.864Z,19.33
2019-02-16T13:36:36.978Z,17.20
2019-02-16T13:39:18.934Z,16.60
2019-02-16T13:42:03.918Z,17.23
2019-02-16T13:44:49.171Z,18.03
2019-02-16T13:47:36.239Z,17.03
2019-02-16T13:50:20.402Z,17.93
2019-02-16T13:53:13.090Z,19.20
2019-02-16T13:55:58.213Z,16.37
2019-02-16T13:58:49.683Z,16.80
2019-02-16T14:01:32.146Z,18.23
2019-02-16T14:04:29.534Z,18.07
2019-02-16T14:07:14.405Z,16.77
2019-02-16T14:10:10.038Z,18.90
2019-02-16T14:12:55.549Z,17.57
2019-02-16T14:15:29.604Z,16.50
2019-02-16T14:17:56.708Z,16.67
2019-02-16T14:20:23.765Z,18.40
2019-02-16T14:22:50.704Z,19.73
2019-02-16T14:25:29.829Z,19.13
2019-02-16T14:27:56.891Z,19.73
2019-02-16T14:30:23.898Z,15.97
2019-02-16T14:32:50.840Z,17.63
2019-02-16T14:35:17.895Z,18.83
2019-02-16T14:37:52.663Z,18.57
2019-02-16T14:40:19.996Z,16.37
2019-02-16T14:42:46.882Z,20.47
2019-02-16T14:45:13.929Z,17.60
2019-02-16T14:47:40.920Z,18.83
2019-02-16T14:50:10.849Z,16.93
2019-02-16T14:52:37.872Z,19.97
2019-02-16T14:55:06.735Z,19.17
2019-02-16T14:57:34.114Z,18.47
2019-02-16T15:00:02.294Z,19.90
2019-02-16T15:02:31.919Z,19.07
2019-02-16T15:04:58.766Z,22.20
2019-02-16T15:07:25.611Z,17.20
2019-02-16T15:09:52.602Z,19.37
2019-02-16T15:12:19.442Z,22.27
2019-02-16T15:14:46.260Z,19.37
2019-02-16T15:17:13.163Z,18.80
2019-02-16T15:19:40.214Z,18.50
2019-02-16T15:22:07.129Z,20.93
2019-02-16T15:24:33.967Z,17.50
2019-02-16T15:27:00.938Z,21.87
2019-02-16T15:29:27.894Z,20.30
2019-02-16T15:31:54.806Z,18.87
2019-02-16T15:34:21.841Z,22.43
2019-02-16T15:36:48.705Z,19.90
2019-02-16T15:39:15.596Z,23.60
2019-02-16T15:41:42.559Z,23.33
2019-02-16T15:44:10.824Z,21.90
2019-02-16T15:46:37.877Z,23.63
2019-02-16T15:49:04.716Z,21.20
2019-02-16T15:51:31.845Z,22.30
2019-02-16T15:53:58.702Z,26.40
2019-02-16T15:56:25.568Z,25.20
2019-02-16T15:58:54.177Z,27.33
2019-02-16T16:01:22.891Z,21.47
2019-02-16T16:03:51.719Z,23.07
2019-02-16T16:06:46.073Z,23.40
2019-02-16T16:09:34.901Z,23.63
2019-02-16T16:12:11.765Z,27.30
2019-02-16T16:14:56.243Z,23.97
2019-02-16T16:17:35.756Z,24.70
2019-02-16T16:20:09.742Z,26.90
2019-02-16T16:22:55.981Z,24.83
2019-02-16T16:25:45.733Z,25.03
2019-02-16T16:28:32.264Z,27.77
2019-02-16T16:31:17.377Z,27.67
2019-02-16T16:34:06.832Z,25.83
2019-02-16T16:36:50.039Z,25.10
2019-02-16T16:39:28.810Z,27.40
2019-02-16T16:42:02.415Z,26.67
2019-02-16T16:44:57.589Z,24.67
2019-02-16T16:47:44.287Z,29.07
2019-02-16T16:50:34.010Z,28.27
2019-02-16T16:53:23.138Z,29.90
2019-02-16T16:55:56.233Z,29.17
2019-02-16T16:58:54.828Z,30.10
2019-02-16T17:01:56.726Z,30.90
2019-02-16T17:04:37.108Z,34.53
2019-02-16T17:07:37.957Z,29.70
2019-02-16T17:10:31.665Z,31.87
2019-02-16T17:13:29.960Z,33.33
2019-02-16T17:16:14.900Z,29.90
2019-02-16T17:18:58.749Z,29.27
2019-02-16T17:21:47.838Z,39.20
2019-02-16T17:24:37.529Z,31.17
2019-02-16T17:27:29.465Z,31.67
2019-02-16T17:30:05.550Z,33.87
2019-02-16T17:32:39.746Z,29.77
2019-02-16T17:35:41.774Z,32.33
2019-02-16T17:38:31.211Z,31.80
2019-02-16T17:41:22.122Z,30.63
2019-02-16T17:44:01.811Z,30.90
2019-02-16T17:46:38.314Z,32.17
2019-02-16T17:49:23.686Z,31.63
2019-02-16T17:52:10.420Z,31.90
2019-02-16T17:54:59.709Z,31.93
2019-02-16T17:57:52.526Z,32.97
2019-02-16T18:00:37.715Z,31.87
2019-02-16T18:03:36.175Z,28.23
2019-02-16T18:06:12.438Z,32.67
2019-02-16T18:09:01.834Z,35.97
2019-02-16T18:11:39.515Z,34.17
2019-02-16T18:14:32.158Z,32.37
2019-02-16T18:17:20.580Z,30.83
2019-02-16T18:19:59.033Z,33.47
2019-02-16T18:22:32.093Z,31.93
2019-02-16T18:25:16.366Z,33.93
2019-02-16T18:27:53.829Z,37.13
2019-02-16T18:30:51.738Z,33.93
2019-02-16T18:33:36.958Z,31.60
2019-02-16T18:36:28.515Z,34.77
2019-02-16T18:39:24.805Z,31.63
2019-02-16T18:42:12.356Z,32.67
2019-02-16T18:45:11.332Z,35.20
2019-02-16T18:48:06.589Z,30.73
2019-02-16T18:50:48.150Z,34.77
2019-02-16T18:53:43.587Z,35.90
2019-02-16T18:56:36.247Z,33.43
2019-02-16T18:59:28.946Z,36.63
2019-02-16T19:02:21.056Z,36.27
2019-02-16T19:05:09.279Z,35.83
2019-02-16T19:07:56.214Z,34.17
2019-02-16T19:10:38.028Z,39.67
2019-02-16T19:13:12.106Z,39.47
2019-02-16T19:16:10.529Z,38.00
2019-02-16T19:19:05.978Z,41.87
2019-02-16T19:21:43.434Z,40.73
2019-02-16T19:24:32.930Z,38.63
2019-02-16T19:27:22.085Z,41.00
2019-02-16T19:30:14.042Z,42.60
2019-02-16T19:33:00.781Z,43.83
2019-02-16T19:35:59.097Z,43.80
2019-02-16T19:39:01.031Z,42.47
2019-02-16T19:41:53.482Z,43.23
2019-02-16T19:44:31.332Z,40.43
2019-02-16T19:47:10.667Z,44.70
2019-02-16T19:49:47.756Z,44.03
2019-02-16T19:52:33.004Z,44.63
2019-02-16T19:55:06.003Z,51.27
2019-02-16T19:57:55.413Z,48.33
2019-02-16T20:00:40.969Z,51.93
2019-02-16T20:03:18.078Z,47.23
2019-02-16T20:06:01.867Z,46.60
2019-02-16T20:08:48.025Z,51.20
2019-02-16T20:11:34.642Z,50.27
2019-02-16T20:14:10.083Z,54.47
2019-02-16T20:17:02.609Z,54.07
2019-02-16T20:19:49.070Z,52.53
2019-02-16T20:22:26.750Z,56.90
2019-02-16T20:25:03.330Z,59.20
2019-02-16T20:27:56.159Z,55.47
2019-02-16T20:30:33.368Z,56.80
2019-02-16T20:33:22.824Z,56.30
2019-02-16T20:36:18.577Z,57.40
2019-02-16T20:39:04.233Z,62.17
2019-02-16T20:41:46.420Z,55.13
2019-02-16T20:44:33.087Z,57.03
2019-02-16T20:47:09.519Z,55.50
2019-02-16T20:49:54.655Z,61.27
2019-02-16T20:52:39.832Z,59.30
2019-02-16T20:55:12.590Z,65.20
2019-02-16T20:57:48.349Z,61.07
2019-02-16T21:00:43.768Z,60.53
2019-02-16T21:03:30.412Z,59.07
2019-02-16T21:06:17.039Z,66.90
2019-02-16T21:09:09.256Z,66.53
2019-02-16T21:12:01.682Z,67.57
2019-02-16T21:14:53.717Z,66.90
2019-02-16T21:17:48.908Z,65.33
2019-02-16T21:20:28.154Z,69.43
2019-02-16T21:23:07.250Z,72.47
2019-02-16T21:25:44.496Z,69.63
2019-02-16T21:28:41.585Z,73.10
2019-02-16T21:31:20.970Z,74.30
2019-02-16T21:33:59.617Z,73.47
2019-02-16T21:36:34.906Z,68.37
2019-02-16T21:39:24.024Z,70.30
2019-02-16T21:41:56.409Z,77.50
2019-02-16T21:44:44.135Z,71.67
2019-02-16T21:47:23.931Z,72.07
2019-02-16T21:50:09.185Z,80.03
2019-02-16T21:52:55.652Z,74.40
2019-02-16T21:55:42.939Z,75.07
2019-02-16T21:58:44.590Z,79.33
2019-02-16T22:01:17.753Z,73.07
2019-02-16T22:04:06.476Z,77.97
2019-02-16T22:06:45.675Z,78.10
2019-02-16T22:09:37.721Z,74.73
2019-02-16T22:12:36.454Z,79.53
2019-02-16T22:15:04.220Z,79.10
2019-02-16T22:17:31.040Z,85.13
2019-02-16T22:19:58.136Z,83.33
2019-02-16T22:22:24.955Z,88.70
2019-02-16T22:24:51.913Z,80.73
2019-02-16T22:27:18.797Z,87.03
2019-02-16T22:29:45.613Z,90.13
2019-02-16T22:32:12.442Z,86.47
2019-02-16T22:34:39.419Z,89.57
2019-02-16T22:37:06.871Z,89.17
2019-02-16T22:39:33.734Z,89.47
2019-02-16T22:42:00.720Z,86.83
2019-02-16T22:44:27.734Z,89.53
2019-02-16T22:46:54.539Z,88.73
2019-02-16T22:49:21.487Z,90.77
2019-02-16T22:51:48.426Z,93.70
2019-02-16T22:54:15.342Z,87.17
2019-02-16T22:56:42.444Z,85.57
2019-02-16T22:59:09.374Z,95.13
2019-02-16T23:01:36.577Z,98.17
2019-02-16T23:04:03.744Z,97.43
2019-02-16T23:06:30.555Z,93.43
2019-02-16T23:08:57.410Z,92.03
2019-02-16T23:11:24.379Z,92.53
2019-02-16T23:13:51.291Z,94.63
2019-02-16T23:16:18.330Z,89.23
2019-02-16T23:18:45.527Z,97.97
2019-02-16T23:21:12.573Z,96.30
2019-02-16T23:23:39.370Z,97.47
2019-02-16T23:26:06.519Z,94.60
2019-02-16T23:28:38.911Z,102.30
2019-02-16T23:31:02.491Z,96.03
2019-02-16T23:33:29.355Z,105.53
2019-02-16T23:35:56.210Z,97.00
2019-02-16T23:38:23.021Z,95.73
2019-02-16T23:40:49.980Z,103.70
2019-02-16T23:43:16.902Z,105.50
2019-02-16T23:45:43.855Z,100.27
2019-02-16T23:48:10.714Z,100.77
2019-02-16T23:50:37.663Z,96.67
2019-02-16T23:53:04.718Z,98.00
2019-02-16T23:55:31.685Z,104.17
2019-02-16T23:57:58.485Z,100.20
